Mount Clare, West Virginia
Current Conditions -  °F | °C
As of 2:53 PM on Saturday 25 Oct 2014 (Local Time) from KCKB Reporting Station
Clear Clear  
Wind Chill: 64°   Ceiling: Unl
Heat Index: 64°   Visibility: 10mi
Dew Point: 49°   Wind: 16mph
Humidity: 58%   Direction: 210°SSW
Pressure: 29.89"   Gusts: NA
Location:  39.17°N, 80.33°W
Report Text: KCKB 251853Z 21014KT 10SM CLR 18/09 A2989 RMK AO2 SLP117 T01780094
Loading
Personal Weather Stations






























Interactive Weather Map
Tropical Storm Tracking
New forecast layout! Learn more

10-Day Weather Forecast

Advertisements
Track Severe Weather on mobile